Terminal Aerodrome Forecast
Issued by NWS Paducah, KY

Home | Current Version | Previous Version | Text Only | Print | Product List | Glossary Off
Versions: 1 2 3 4 5 6 7 8 9 10 11 12 13 14 15 16 17 18

034
FTUS43 KPAH 091720
TAFEVV
TAF
KEVV 091720Z 0918/1018 33007KT P6SM SCT030
     FM100000 00000KT P6SM BKN100
     FM101500 18005KT P6SM SCT100 BKN250=

USA.gov is the U.S. government's official web portal to all federal, state and local government web resources and services.